createdAt,value
2024-05-09T00:00:03.737Z,0
2024-05-09T00:01:04.842Z,0
2024-05-09T00:02:04.830Z,0
2024-05-09T00:03:05.406Z,0
2024-05-09T00:04:06.675Z,0
2024-05-09T00:05:07.529Z,0
2024-05-09T00:06:08.178Z,0
2024-05-09T00:07:08.186Z,0
2024-05-09T00:08:09.697Z,0
2024-05-09T00:09:10.051Z,0
2024-05-09T00:10:18.116Z,0
2024-05-09T00:11:13.836Z,0
2024-05-09T00:12:14.829Z,0
2024-05-09T00:13:15.939Z,0
2024-05-09T00:14:16.518Z,0
2024-05-09T00:15:16.942Z,0
2024-05-09T00:16:16.893Z,0
2024-05-09T00:17:18.096Z,0
2024-05-09T00:18:21.000Z,0
2024-05-09T00:19:20.071Z,0
2024-05-09T00:20:47.003Z,0
2024-05-09T00:22:35.212Z,0
2024-05-09T00:23:37.040Z,0
2024-05-09T00:24:37.105Z,0
2024-05-09T00:25:37.370Z,0
2024-05-09T00:26:38.051Z,0
2024-05-09T00:27:38.236Z,0
2024-05-09T00:28:38.360Z,0
2024-05-09T00:29:39.659Z,0
2024-05-09T00:30:50.645Z,0
2024-05-09T00:31:40.066Z,0
2024-05-09T00:32:42.138Z,0
2024-05-09T00:33:42.230Z,0
2024-05-09T00:34:41.430Z,0
2024-05-09T00:35:42.893Z,0
2024-05-09T00:36:42.642Z,0
2024-05-09T00:37:43.514Z,0
2024-05-09T00:38:44.763Z,0
2024-05-09T00:39:44.497Z,0
2024-05-09T00:40:55.407Z,0
2024-05-09T00:41:45.264Z,0
2024-05-09T00:42:45.794Z,0
2024-05-09T00:43:46.834Z,0
2024-05-09T00:44:47.866Z,0
2024-05-09T00:45:48.851Z,0
2024-05-09T00:46:49.681Z,0
2024-05-09T00:47:51.984Z,0
2024-05-09T00:48:51.639Z,0
2024-05-09T00:49:52.339Z,0
2024-05-09T00:50:54.649Z,0
2024-05-09T00:51:53.227Z,0
2024-05-09T00:52:54.518Z,0
2024-05-09T00:53:54.901Z,0
2024-05-09T00:54:54.850Z,0
2024-05-09T00:55:55.950Z,0
2024-05-09T00:56:55.631Z,0
2024-05-09T00:57:56.547Z,0
2024-05-09T00:58:57.419Z,0
2024-05-09T00:59:58.447Z,0
2024-05-09T01:00:59.432Z,0
2024-05-09T01:02:01.674Z,0
2024-05-09T01:03:01.100Z,0
2024-05-09T01:04:03.840Z,0
2024-05-09T01:05:02.313Z,0
2024-05-09T01:06:02.932Z,0
2024-05-09T01:07:02.666Z,0
2024-05-09T01:08:03.353Z,0
2024-05-09T01:09:04.352Z,0
2024-05-09T01:10:07.087Z,0
2024-05-09T01:11:07.011Z,0
2024-05-09T01:12:07.864Z,0
2024-05-09T01:13:07.929Z,0
2024-05-09T01:14:08.871Z,0
2024-05-09T01:15:09.394Z,0
2024-05-09T01:16:10.575Z,0
2024-05-09T01:17:10.951Z,0
2024-05-09T01:18:13.114Z,0
2024-05-09T01:19:12.106Z,0
2024-05-09T01:20:19.983Z,0
2024-05-09T01:21:13.443Z,0
2024-05-09T01:22:13.430Z,0
2024-05-09T01:23:15.948Z,0
2024-05-09T01:24:15.679Z,0
2024-05-09T01:25:15.630Z,0
2024-05-09T01:26:16.996Z,0
2024-05-09T01:27:16.756Z,0
2024-05-09T01:28:17.285Z,0
2024-05-09T01:29:18.961Z,0
2024-05-09T01:30:41.240Z,0
2024-05-09T01:31:19.155Z,0
2024-05-09T01:32:20.723Z,0
2024-05-09T01:33:24.881Z,0
2024-05-09T01:34:20.860Z,0
2024-05-09T01:35:21.648Z,0
2024-05-09T01:36:22.914Z,0
2024-05-09T01:37:23.445Z,0
2024-05-09T01:38:25.713Z,0
2024-05-09T01:39:24.711Z,0
2024-05-09T01:40:49.494Z,0
2024-05-09T01:43:28.696Z,0
2024-05-09T01:44:28.844Z,0
2024-05-09T01:45:28.646Z,0
2024-05-09T01:46:29.202Z,0
2024-05-09T01:47:30.855Z,0
2024-05-09T01:48:31.980Z,0
2024-05-09T01:49:32.571Z,0
2024-05-09T01:50:52.316Z,0
2024-05-09T01:53:34.730Z,0
2024-05-09T01:54:34.795Z,0
2024-05-09T01:55:35.308Z,0
2024-05-09T01:56:36.605Z,0
2024-05-09T01:57:36.204Z,0
2024-05-09T01:58:36.737Z,0
2024-05-09T01:59:38.253Z,0
2024-05-09T02:00:54.537Z,0
2024-05-09T02:03:41.120Z,0
2024-05-09T02:04:41.188Z,0
2024-05-09T02:05:41.180Z,0
2024-05-09T02:06:41.954Z,0
2024-05-09T02:07:42.933Z,0
2024-05-09T02:08:44.286Z,0
2024-05-09T02:09:44.226Z,0
2024-05-09T02:10:50.329Z,0
2024-05-09T02:11:46.332Z,0
2024-05-09T02:12:46.496Z,0
2024-05-09T02:13:47.431Z,0
2024-05-09T02:14:48.647Z,0
2024-05-09T02:15:48.792Z,0
2024-05-09T02:16:48.539Z,0
2024-05-09T02:17:50.877Z,0
2024-05-09T02:18:50.136Z,0
2024-05-09T02:19:50.588Z,0
2024-05-09T02:20:55.476Z,0
2024-05-09T02:21:51.260Z,0
2024-05-09T02:22:52.150Z,0
2024-05-09T02:23:53.551Z,0
2024-05-09T02:24:53.269Z,0
2024-05-09T02:25:54.343Z,0
2024-05-09T02:26:54.218Z,0
2024-05-09T02:27:54.938Z,0
2024-05-09T02:28:55.869Z,0
2024-05-09T02:29:57.105Z,0
2024-05-09T02:30:59.046Z,0
2024-05-09T02:31:58.392Z,0
2024-05-09T02:32:59.301Z,0
2024-05-09T02:34:01.708Z,0
2024-05-09T02:34:59.887Z,0
2024-05-09T02:36:00.875Z,0
2024-05-09T02:37:01.951Z,0
2024-05-09T02:38:03.216Z,0
2024-05-09T02:39:03.262Z,0
2024-05-09T02:40:03.385Z,0
2024-05-09T02:41:04.255Z,0
2024-05-09T02:42:05.000Z,0
2024-05-09T02:43:05.656Z,0
2024-05-09T02:44:06.826Z,0
2024-05-09T02:45:07.363Z,0
2024-05-09T02:46:08.478Z,0
2024-05-09T02:47:08.797Z,0
2024-05-09T02:48:10.860Z,0
2024-05-09T02:49:09.402Z,0
2024-05-09T02:50:16.102Z,0
2024-05-09T02:51:10.505Z,0
2024-05-09T02:52:10.542Z,0
2024-05-09T02:53:11.977Z,0
2024-05-09T02:54:11.875Z,0
2024-05-09T02:55:13.026Z,0
2024-05-09T02:56:14.232Z,0
2024-05-09T02:57:13.994Z,0
2024-05-09T02:58:15.442Z,0
2024-05-09T02:59:15.907Z,0
2024-05-09T03:00:41.590Z,0
2024-05-09T03:02:18.481Z,0
2024-05-09T03:03:24.679Z,0
2024-05-09T03:04:19.480Z,0
2024-05-09T03:05:19.611Z,0
2024-05-09T03:06:19.553Z,0
2024-05-09T03:07:20.483Z,0
2024-05-09T03:08:21.902Z,0
2024-05-09T03:09:21.723Z,0
2024-05-09T03:10:44.865Z,0
2024-05-09T03:11:22.890Z,0
2024-05-09T03:12:24.160Z,0
2024-05-09T03:13:27.566Z,0
2024-05-09T03:14:25.720Z,0
2024-05-09T03:15:25.697Z,0
2024-05-09T03:16:26.437Z,0
2024-05-09T03:17:27.878Z,0
2024-05-09T03:18:29.585Z,0
2024-05-09T03:19:29.994Z,0
2024-05-09T03:20:47.756Z,0
2024-05-09T03:21:29.606Z,0
2024-05-09T03:22:30.098Z,0
2024-05-09T03:23:31.522Z,0
2024-05-09T03:24:30.890Z,0
2024-05-09T03:25:32.012Z,0
2024-05-09T03:26:33.129Z,0
2024-05-09T03:27:32.907Z,0
2024-05-09T03:28:33.823Z,0
2024-05-09T03:29:35.257Z,0
2024-05-09T03:30:54.025Z,0
2024-05-09T03:31:35.584Z,0
2024-05-09T03:32:36.964Z,0
2024-05-09T03:33:39.266Z,0
2024-05-09T03:34:37.169Z,0
2024-05-09T03:35:38.624Z,0
2024-05-09T03:36:38.363Z,0
2024-05-09T03:37:39.279Z,0
2024-05-09T03:38:40.392Z,0
2024-05-09T03:39:39.979Z,0
2024-05-09T03:40:47.084Z,0
2024-05-09T03:41:42.650Z,0
2024-05-09T03:42:42.056Z,0
2024-05-09T03:43:42.892Z,0
2024-05-09T03:44:43.261Z,0
2024-05-09T03:45:43.430Z,0
2024-05-09T03:46:43.773Z,0
2024-05-09T03:47:44.978Z,0
2024-05-09T03:48:44.503Z,0
2024-05-09T03:49:44.700Z,0
2024-05-09T03:50:51.942Z,0
2024-05-09T03:51:44.427Z,0
2024-05-09T03:52:45.425Z,0
2024-05-09T03:53:46.864Z,0
2024-05-09T03:54:46.858Z,0
2024-05-09T03:55:47.762Z,0
2024-05-09T03:56:48.017Z,0
2024-05-09T03:57:47.960Z,0
2024-05-09T03:58:48.509Z,0
2024-05-09T03:59:49.669Z,0
2024-05-09T04:00:55.386Z,0
2024-05-09T04:01:51.837Z,0
2024-05-09T04:02:52.582Z,0
2024-05-09T04:03:53.799Z,0
2024-05-09T04:04:53.314Z,0
2024-05-09T04:05:55.692Z,0
2024-05-09T04:06:53.597Z,0
2024-05-09T04:07:54.840Z,0
2024-05-09T04:08:55.361Z,0
2024-05-09T04:09:54.686Z,0
2024-05-09T04:10:56.274Z,0
2024-05-09T04:11:56.687Z,0
2024-05-09T04:12:56.702Z,0
2024-05-09T04:13:57.665Z,0
2024-05-09T04:14:57.720Z,0
2024-05-09T04:15:58.411Z,0
2024-05-09T04:16:59.803Z,0
2024-05-09T04:18:01.804Z,0
2024-05-09T04:19:00.927Z,0
2024-05-09T04:20:00.887Z,0
2024-05-09T04:21:01.437Z,0
2024-05-09T04:22:00.834Z,0
2024-05-09T04:23:02.010Z,0
2024-05-09T04:24:02.780Z,0
2024-05-09T04:25:03.561Z,0
2024-05-09T04:26:04.664Z,5.63
2024-05-09T04:27:04.604Z,5.63
2024-05-09T04:28:05.944Z,5.63
2024-05-09T04:29:05.759Z,5.63
2024-05-09T04:30:09.913Z,5.63
2024-05-09T04:31:07.030Z,5.63
2024-05-09T04:32:08.515Z,5.63
2024-05-09T04:33:10.719Z,5.63
2024-05-09T04:34:10.490Z,5.63
2024-05-09T04:35:09.860Z,5.63
2024-05-09T04:36:09.649Z,5.63
2024-05-09T04:37:09.957Z,5.63
2024-05-09T04:38:12.304Z,5.63
2024-05-09T04:39:11.359Z,5.63
2024-05-09T04:40:20.978Z,5.63
2024-05-09T04:41:13.500Z,5.63
2024-05-09T04:42:13.259Z,5.63
2024-05-09T04:43:14.086Z,5.63
2024-05-09T04:44:15.151Z,11.25
2024-05-09T04:45:15.319Z,11.25
2024-05-09T04:46:16.131Z,11.25
2024-05-09T04:47:17.553Z,11.25
2024-05-09T04:48:19.667Z,11.25
2024-05-09T04:49:19.804Z,11.25
2024-05-09T04:50:43.255Z,11.25
2024-05-09T04:52:20.399Z,11.25
2024-05-09T04:53:23.238Z,11.25
2024-05-09T04:54:42.198Z,11.25
2024-05-09T04:55:22.508Z,11.25
2024-05-09T04:56:23.835Z,11.25
2024-05-09T04:57:24.002Z,11.25
2024-05-09T04:58:24.248Z,11.25
2024-05-09T04:59:24.822Z,11.25
2024-05-09T05:00:48.341Z,11.25
2024-05-09T05:01:25.421Z,11.25
2024-05-09T05:02:26.792Z,11.25
2024-05-09T05:03:31.881Z,11.25
2024-05-09T05:04:27.015Z,11.25
2024-05-09T05:05:28.944Z,11.25
2024-05-09T05:06:28.697Z,11.25
2024-05-09T05:07:29.600Z,11.25
2024-05-09T05:08:31.339Z,11.25
2024-05-09T05:09:31.060Z,11.25
2024-05-09T05:10:48.614Z,16.88
2024-05-09T05:11:32.279Z,16.88
2024-05-09T05:12:34.215Z,16.88
2024-05-09T05:13:38.622Z,16.88
2024-05-09T05:14:34.782Z,16.88
2024-05-09T05:15:35.796Z,16.88
2024-05-09T05:16:36.332Z,16.88
2024-05-09T05:17:38.120Z,16.88
2024-05-09T05:18:40.038Z,16.88
2024-05-09T05:19:39.892Z,16.88
2024-05-09T05:20:49.323Z,16.88
2024-05-09T05:21:40.030Z,16.88
2024-05-09T05:22:40.971Z,16.88
2024-05-09T05:23:42.140Z,22.5
2024-05-09T05:24:42.206Z,22.5
2024-05-09T05:25:43.451Z,22.5
2024-05-09T05:26:44.063Z,22.5
2024-05-09T05:27:44.354Z,22.5
2024-05-09T05:28:44.410Z,22.5
2024-05-09T05:29:44.259Z,22.5
2024-05-09T05:30:51.040Z,22.5
2024-05-09T05:31:46.405Z,22.5
2024-05-09T05:32:47.229Z,22.5
2024-05-09T05:33:48.335Z,22.5
2024-05-09T05:34:48.640Z,22.5
2024-05-09T05:35:49.022Z,22.5
2024-05-09T05:36:48.970Z,22.5
2024-05-09T05:37:49.739Z,22.5
2024-05-09T05:38:50.937Z,22.5
2024-05-09T05:39:51.056Z,22.5
2024-05-09T05:40:54.872Z,28.13
2024-05-09T05:41:51.688Z,28.13
2024-05-09T05:42:52.497Z,28.13
2024-05-09T05:43:53.553Z,28.13
2024-05-09T05:44:54.670Z,28.13
2024-05-09T05:45:55.844Z,22.5
2024-05-09T05:46:55.760Z,22.5
2024-05-09T05:47:58.054Z,22.5
2024-05-09T05:48:57.430Z,22.5
2024-05-09T05:49:57.752Z,22.5
2024-05-09T05:51:00.486Z,22.5
2024-05-09T05:51:58.851Z,22.5
2024-05-09T05:52:59.978Z,28.13
2024-05-09T05:54:00.264Z,28.13
2024-05-09T05:55:00.941Z,28.13
2024-05-09T05:56:02.487Z,28.13
2024-05-09T05:57:02.516Z,28.13
2024-05-09T05:58:03.331Z,28.13
2024-05-09T05:59:04.088Z,28.13
2024-05-09T06:00:09.190Z,28.13
2024-05-09T06:01:05.959Z,28.13
2024-05-09T06:02:06.583Z,28.13
2024-05-09T06:03:07.560Z,28.13
2024-05-09T06:04:07.609Z,28.13
2024-05-09T06:05:07.953Z,28.13
2024-05-09T06:06:08.777Z,28.13
2024-05-09T06:07:08.533Z,28.13
2024-05-09T06:08:09.843Z,28.13
2024-05-09T06:09:10.219Z,28.13
2024-05-09T06:10:17.528Z,28.13
2024-05-09T06:11:10.638Z,28.13
2024-05-09T06:12:12.120Z,33.75
2024-05-09T06:13:12.531Z,33.75
2024-05-09T06:14:13.397Z,33.75
2024-05-09T06:15:13.446Z,33.75
2024-05-09T06:16:13.582Z,33.75
2024-05-09T06:17:15.193Z,33.75
2024-05-09T06:18:18.608Z,39.38
2024-05-09T06:19:16.778Z,39.38
2024-05-09T06:20:41.103Z,39.38
2024-05-09T06:22:16.918Z,39.38
2024-05-09T06:23:18.922Z,39.38
2024-05-09T06:24:21.462Z,39.38
2024-05-09T06:25:19.316Z,39.38
2024-05-09T06:26:20.476Z,39.38
2024-05-09T06:27:19.820Z,39.38
2024-05-09T06:28:20.941Z,39.38
2024-05-09T06:29:21.359Z,39.38
2024-05-09T06:30:47.979Z,39.38
2024-05-09T06:32:23.317Z,39.38
2024-05-09T06:33:28.396Z,39.38
2024-05-09T06:34:25.197Z,45
2024-05-09T06:35:25.283Z,45
2024-05-09T06:36:24.926Z,50.63
2024-05-09T06:37:25.814Z,50.63
2024-05-09T06:38:27.205Z,50.63
2024-05-09T06:39:27.394Z,50.63
2024-05-09T06:40:50.126Z,50.63
2024-05-09T06:42:29.928Z,56.25
2024-05-09T06:43:32.375Z,56.25
2024-05-09T06:44:31.362Z,56.25
2024-05-09T06:45:32.072Z,56.25
2024-05-09T06:46:32.620Z,56.25
2024-05-09T06:47:33.919Z,56.25
2024-05-09T06:48:35.765Z,56.25
2024-05-09T06:49:36.004Z,56.25
2024-05-09T06:50:50.617Z,56.25
2024-05-09T06:52:36.423Z,50.63
2024-05-09T06:53:37.747Z,56.25
2024-05-09T06:54:37.572Z,56.25
2024-05-09T06:55:38.253Z,50.63
2024-05-09T06:56:39.548Z,50.63
2024-05-09T06:57:40.613Z,50.63
2024-05-09T06:58:40.673Z,50.63
2024-05-09T06:59:41.617Z,50.63
2024-05-09T07:00:54.590Z,50.63
2024-05-09T07:02:44.048Z,45
2024-05-09T07:03:44.850Z,39.38
2024-05-09T07:04:45.556Z,33.75
2024-05-09T07:05:46.353Z,33.75
2024-05-09T07:06:46.042Z,33.75
2024-05-09T07:07:46.379Z,33.75
2024-05-09T07:08:48.654Z,33.75
2024-05-09T07:09:47.406Z,33.75
2024-05-09T07:10:49.923Z,33.75
2024-05-09T07:11:49.314Z,33.75
2024-05-09T07:12:49.534Z,33.75
2024-05-09T07:13:49.493Z,33.75
2024-05-09T07:14:54.555Z,33.75
2024-05-09T07:15:51.070Z,28.13
2024-05-09T07:16:52.301Z,28.13
2024-05-09T07:17:52.914Z,22.5
2024-05-09T07:18:54.087Z,22.5
2024-05-09T07:19:53.750Z,22.5
2024-05-09T07:20:55.482Z,22.5
2024-05-09T07:21:54.422Z,22.5
2024-05-09T07:22:54.448Z,22.5
2024-05-09T07:23:58.124Z,22.5
2024-05-09T07:24:55.650Z,22.5
2024-05-09T07:25:57.002Z,22.5
2024-05-09T07:26:57.121Z,22.5
2024-05-09T07:27:57.492Z,22.5
2024-05-09T07:28:58.555Z,22.5
2024-05-09T07:29:59.875Z,22.5
2024-05-09T07:31:00.065Z,22.5
2024-05-09T07:32:00.797Z,22.5
2024-05-09T07:33:03.332Z,22.5
2024-05-09T07:34:02.899Z,22.5
2024-05-09T07:35:02.511Z,22.5
2024-05-09T07:36:04.417Z,22.5
2024-05-09T07:37:04.109Z,22.5
2024-05-09T07:38:04.998Z,22.5
2024-05-09T07:39:06.292Z,28.13
2024-05-09T07:40:07.609Z,28.13
2024-05-09T07:41:06.953Z,28.13
2024-05-09T07:42:06.713Z,28.13
2024-05-09T07:43:07.553Z,33.75
2024-05-09T07:44:08.596Z,33.75
2024-05-09T07:46:17.072Z,33.75
2024-05-09T07:55:12.472Z,50.63
2024-05-09T07:56:16.008Z,50.63
2024-05-09T07:57:14.982Z,45
2024-05-09T07:58:15.089Z,45
2024-05-09T07:59:15.256Z,39.38
2024-05-09T08:00:27.196Z,39.38
2024-05-09T08:01:17.954Z,39.38
2024-05-09T08:02:18.245Z,39.38
2024-05-09T08:03:18.464Z,45
2024-05-09T08:04:18.524Z,45
2024-05-09T08:05:19.548Z,50.63
2024-05-09T08:06:19.999Z,50.63
2024-05-09T08:07:20.432Z,50.63
2024-05-09T08:08:20.281Z,56.25
2024-05-09T08:09:32.482Z,67.5
2024-05-09T08:10:29.903Z,67.5
2024-05-09T08:11:22.015Z,67.5
2024-05-09T08:12:22.950Z,67.5
2024-05-09T08:13:23.537Z,56.25
2024-05-09T08:14:23.323Z,50.63
2024-05-09T08:15:24.027Z,50.63
2024-05-09T08:16:25.545Z,45
2024-05-09T08:17:26.096Z,45
2024-05-09T08:18:26.880Z,39.38
2024-05-09T08:19:26.980Z,39.38
2024-05-09T08:20:46.112Z,39.38
2024-05-09T08:22:29.151Z,39.38
2024-05-09T08:23:29.747Z,39.38
2024-05-09T08:24:30.695Z,45
2024-05-09T08:25:32.028Z,50.63
2024-05-09T08:26:31.798Z,61.88
2024-05-09T08:27:33.006Z,67.5
2024-05-09T08:28:34.023Z,73.13
2024-05-09T08:29:34.282Z,90
2024-05-09T08:30:49.800Z,163.13
2024-05-09T08:31:34.633Z,135
2024-05-09T08:32:35.597Z,140.63
2024-05-09T08:33:37.564Z,151.88
2024-05-09T08:34:37.264Z,180
2024-05-09T08:35:36.974Z,146.25
2024-05-09T08:36:38.049Z,106.88
2024-05-09T08:37:51.433Z,123.75
2024-05-09T08:39:40.104Z,168.75
2024-05-09T08:40:50.939Z,123.75
2024-05-09T08:41:40.679Z,118.13
2024-05-09T08:42:41.268Z,157.5
2024-05-09T08:43:45.170Z,258.75
2024-05-09T08:44:43.346Z,292.5
2024-05-09T08:45:45.091Z,258.75
2024-05-09T08:46:45.020Z,123.75
2024-05-09T08:47:45.622Z,303.75
2024-05-09T08:48:47.487Z,225
2024-05-09T08:49:51.990Z,151.88
2024-05-09T08:50:56.945Z,427.5
2024-05-09T08:51:47.909Z,433.13
2024-05-09T08:52:48.680Z,264.38
2024-05-09T08:53:49.257Z,174.38
2024-05-09T08:54:50.460Z,135
2024-05-09T08:55:55.570Z,213.75
2024-05-09T08:56:51.349Z,348.75
2024-05-09T08:57:52.392Z,376.88
2024-05-09T08:58:52.223Z,613.13
2024-05-09T08:59:52.989Z,753.75
2024-05-09T09:00:55.473Z,528.75
2024-05-09T09:01:57.675Z,596.25
2024-05-09T09:02:54.596Z,309.38
2024-05-09T09:03:57.272Z,781.88
2024-05-09T09:04:56.865Z,483.75
2024-05-09T09:05:57.679Z,135
2024-05-09T09:07:00.344Z,388.13
2024-05-09T09:07:57.567Z,236.25
2024-05-09T09:08:58.376Z,191.25
2024-05-09T09:09:59.534Z,157.5
2024-05-09T09:11:00.147Z,241.88
2024-05-09T09:12:00.371Z,236.25
2024-05-09T09:13:00.887Z,230.63
2024-05-09T09:14:00.708Z,253.13
2024-05-09T09:15:01.921Z,202.5
2024-05-09T09:16:03.531Z,208.13
2024-05-09T09:17:03.587Z,140.63
2024-05-09T09:18:04.944Z,168.75
2024-05-09T09:19:05.262Z,140.63
2024-05-09T09:20:06.956Z,146.25
2024-05-09T09:21:06.141Z,163.13
2024-05-09T09:22:06.395Z,180
2024-05-09T09:23:07.183Z,264.38
2024-05-09T09:24:09.743Z,376.88
2024-05-09T09:25:08.974Z,365.63
2024-05-09T09:26:10.118Z,174.38
2024-05-09T09:27:09.907Z,202.5
2024-05-09T09:28:11.369Z,140.63
2024-05-09T09:29:11.493Z,320.63
2024-05-09T09:30:31.301Z,478.13
2024-05-09T09:31:13.032Z,461.25
2024-05-09T09:32:13.009Z,438.75
2024-05-09T09:33:14.819Z,298.13
2024-05-09T09:34:15.803Z,472.5
2024-05-09T09:35:14.940Z,455.63
2024-05-09T09:36:19.343Z,399.38
2024-05-09T09:37:16.413Z,112.5
2024-05-09T09:38:16.701Z,95.63
2024-05-09T09:39:16.610Z,84.38
2024-05-09T09:40:22.184Z,90
2024-05-09T09:41:19.166Z,106.88
2024-05-09T09:42:19.290Z,433.13
2024-05-09T09:43:20.342Z,365.63
2024-05-09T09:44:20.168Z,399.38
2024-05-09T09:45:22.309Z,241.88
2024-05-09T09:46:26.388Z,196.88
2024-05-09T09:47:22.456Z,196.88
2024-05-09T09:48:24.057Z,253.13
2024-05-09T09:49:24.054Z,140.63
2024-05-09T09:50:45.466Z,106.88
2024-05-09T09:51:24.172Z,101.25
2024-05-09T09:52:28.184Z,95.63
2024-05-09T09:53:24.952Z,95.63
2024-05-09T09:54:25.754Z,95.63
2024-05-09T09:55:27.450Z,84.38
2024-05-09T09:56:27.498Z,90
2024-05-09T09:57:27.446Z,90
2024-05-09T09:58:31.343Z,78.75
2024-05-09T09:59:29.094Z,84.38
2024-05-09T10:00:45.445Z,95.63
2024-05-09T10:01:30.444Z,95.63
2024-05-09T10:02:32.243Z,90
2024-05-09T10:03:33.534Z,84.38
2024-05-09T10:04:33.279Z,78.75
2024-05-09T10:05:34.639Z,84.38
2024-05-09T10:06:33.610Z,84.38
2024-05-09T10:07:34.997Z,90
2024-05-09T10:08:35.056Z,95.63
2024-05-09T10:09:36.077Z,95.63
2024-05-09T10:10:47.663Z,95.63
2024-05-09T10:11:41.796Z,101.25
2024-05-09T10:12:37.803Z,106.88
2024-05-09T10:13:38.433Z,123.75
2024-05-09T10:14:38.005Z,129.38
2024-05-09T10:15:39.562Z,151.88
2024-05-09T10:16:40.132Z,163.13
2024-05-09T10:17:40.663Z,157.5
2024-05-09T10:18:47.095Z,309.38
2024-05-09T10:19:41.400Z,157.5
2024-05-09T10:20:47.196Z,309.38
2024-05-09T10:21:42.414Z,118.13
2024-05-09T10:22:42.529Z,101.25
2024-05-09T10:23:42.689Z,101.25
2024-05-09T10:24:42.975Z,101.25
2024-05-09T10:25:43.101Z,106.88
2024-05-09T10:26:43.343Z,106.88
2024-05-09T10:27:43.593Z,106.88
2024-05-09T10:28:43.933Z,112.5
2024-05-09T10:29:43.886Z,118.13
2024-05-09T10:30:55.906Z,106.88
2024-05-09T10:31:46.611Z,112.5
2024-05-09T10:32:47.207Z,112.5
2024-05-09T10:33:48.680Z,112.5
2024-05-09T10:34:47.696Z,112.5
2024-05-09T10:35:47.413Z,112.5
2024-05-09T10:36:48.666Z,112.5
2024-05-09T10:37:48.901Z,112.5
2024-05-09T10:38:48.904Z,118.13
2024-05-09T10:39:50.489Z,123.75
2024-05-09T10:40:50.651Z,123.75
2024-05-09T10:41:50.405Z,140.63
2024-05-09T10:42:51.729Z,196.88
2024-05-09T10:43:51.900Z,236.25
2024-05-09T10:44:51.963Z,168.75
2024-05-09T10:45:53.120Z,168.75
2024-05-09T10:46:54.049Z,157.5
2024-05-09T10:47:54.959Z,163.13
2024-05-09T10:48:56.560Z,174.38
2024-05-09T10:49:55.996Z,196.88
2024-05-09T10:50:56.357Z,196.88
2024-05-09T10:51:56.668Z,208.13
2024-05-09T10:52:56.443Z,185.63
2024-05-09T10:53:57.124Z,191.25
2024-05-09T10:54:58.432Z,208.13
2024-05-09T10:55:58.524Z,292.5
2024-05-09T10:56:59.020Z,236.25
2024-05-09T10:58:00.190Z,157.5
2024-05-09T10:59:01.209Z,174.38
2024-05-09T11:00:01.135Z,196.88
2024-05-09T11:01:04.320Z,225
2024-05-09T11:02:03.655Z,393.75
2024-05-09T11:03:03.950Z,247.5
2024-05-09T11:04:05.395Z,191.25
2024-05-09T11:05:04.877Z,174.38
2024-05-09T11:06:05.158Z,185.63
2024-05-09T11:07:05.451Z,399.38
2024-05-09T11:08:05.196Z,483.75
2024-05-09T11:09:06.145Z,354.38
2024-05-09T11:10:09.843Z,438.75
2024-05-09T11:11:07.968Z,298.13
2024-05-09T11:12:08.232Z,146.25
2024-05-09T11:13:08.517Z,135
2024-05-09T11:14:09.374Z,180
2024-05-09T11:15:10.301Z,180
2024-05-09T11:16:11.681Z,168.75
2024-05-09T11:17:12.346Z,101.25
2024-05-09T11:18:13.980Z,101.25
2024-05-09T11:19:15.558Z,95.63
2024-05-09T11:20:35.782Z,90
2024-05-09T11:21:15.871Z,90
2024-05-09T11:22:15.836Z,90
2024-05-09T11:23:16.727Z,95.63
2024-05-09T11:24:22.217Z,101.25
2024-05-09T11:25:18.764Z,101.25
2024-05-09T11:26:18.572Z,129.38
2024-05-09T11:27:19.399Z,129.38
2024-05-09T11:28:20.658Z,118.13
2024-05-09T11:29:24.647Z,112.5
2024-05-09T11:30:41.012Z,95.63
2024-05-09T11:31:22.768Z,90
2024-05-09T11:32:23.426Z,84.38
2024-05-09T11:33:23.806Z,73.13
2024-05-09T11:34:23.645Z,73.13
2024-05-09T11:35:24.445Z,73.13
2024-05-09T11:36:25.174Z,84.38
2024-05-09T11:37:26.595Z,95.63
2024-05-09T11:38:26.561Z,118.13
2024-05-09T11:39:27.610Z,168.75
2024-05-09T11:40:45.997Z,196.88
2024-05-09T11:42:29.837Z,202.5
2024-05-09T11:43:30.591Z,230.63
2024-05-09T11:44:30.669Z,202.5
2024-05-09T11:45:31.829Z,303.75
2024-05-09T11:46:33.183Z,157.5
2024-05-09T11:47:33.624Z,123.75
2024-05-09T11:48:34.565Z,174.38
2024-05-09T11:49:38.630Z,118.13
2024-05-09T11:50:47.268Z,84.38
2024-05-09T11:51:35.952Z,73.13
2024-05-09T11:52:37.027Z,67.5
2024-05-09T11:53:38.231Z,61.88
2024-05-09T11:54:38.316Z,56.25
2024-05-09T11:55:43.909Z,50.63
2024-05-09T11:56:39.329Z,45
2024-05-09T11:57:39.937Z,50.63
2024-05-09T11:58:41.065Z,50.63
2024-05-09T11:59:41.011Z,50.63
2024-05-09T12:00:52.943Z,50.63
2024-05-09T12:01:44.302Z,50.63
2024-05-09T12:02:44.167Z,56.25
2024-05-09T12:03:44.716Z,56.25
2024-05-09T12:04:45.396Z,61.88
2024-05-09T12:05:46.912Z,67.5
2024-05-09T12:06:45.792Z,67.5
2024-05-09T12:07:47.107Z,67.5
2024-05-09T12:08:47.036Z,73.13
2024-05-09T12:09:48.478Z,73.13
2024-05-09T12:10:52.651Z,73.13
2024-05-09T12:11:48.624Z,73.13
2024-05-09T12:12:52.848Z,78.75
2024-05-09T12:13:49.804Z,78.75
2024-05-09T12:14:50.499Z,78.75
2024-05-09T12:15:51.665Z,78.75
2024-05-09T12:16:51.965Z,78.75
2024-05-09T12:17:58.219Z,84.38
2024-05-09T12:18:53.461Z,84.38
2024-05-09T12:19:53.715Z,67.5
2024-05-09T12:20:56.489Z,61.88
2024-05-09T12:21:54.498Z,56.25
2024-05-09T12:22:54.392Z,61.88
2024-05-09T12:23:55.356Z,56.25
2024-05-09T12:24:56.251Z,61.88
2024-05-09T12:25:56.427Z,56.25
2024-05-09T12:26:57.149Z,56.25
2024-05-09T12:27:58.386Z,56.25
2024-05-09T12:28:58.031Z,61.88
2024-05-09T12:29:58.979Z,61.88
2024-05-09T12:30:59.589Z,61.88
2024-05-09T12:31:59.464Z,61.88
2024-05-09T12:33:01.344Z,67.5
2024-05-09T12:34:01.690Z,67.5
2024-05-09T12:35:01.540Z,73.13
2024-05-09T12:36:05.359Z,73.13
2024-05-09T12:37:03.556Z,78.75
2024-05-09T12:38:03.792Z,90
2024-05-09T12:39:04.749Z,95.63
2024-05-09T12:40:08.904Z,95.63
2024-05-09T12:41:07.371Z,95.63
2024-05-09T12:42:07.231Z,101.25
2024-05-09T12:43:09.017Z,112.5
2024-05-09T12:44:09.176Z,118.13
2024-05-09T12:45:09.499Z,112.5
2024-05-09T12:46:10.985Z,118.13
2024-05-09T12:47:10.719Z,112.5
2024-05-09T12:48:13.525Z,112.5
2024-05-09T12:49:15.720Z,106.88
2024-05-09T12:50:31.389Z,95.63
2024-05-09T12:51:13.659Z,90
2024-05-09T12:52:13.889Z,78.75
2024-05-09T12:53:15.749Z,73.13
2024-05-09T12:54:14.698Z,78.75
2024-05-09T12:55:15.799Z,78.75
2024-05-09T12:56:20.690Z,84.38
2024-05-09T12:57:16.183Z,90
2024-05-09T12:58:17.753Z,95.63
2024-05-09T12:59:18.079Z,101.25
2024-05-09T13:00:39.481Z,112.5
2024-05-09T13:02:19.460Z,185.63
2024-05-09T13:03:20.857Z,185.63
2024-05-09T13:04:21.313Z,303.75
2024-05-09T13:05:21.198Z,253.13
2024-05-09T13:06:21.051Z,146.25
2024-05-09T13:07:24.695Z,118.13
2024-05-09T13:08:22.216Z,326.25
2024-05-09T13:09:22.731Z,241.88
2024-05-09T13:10:44.474Z,174.38
2024-05-09T13:11:24.364Z,112.5
2024-05-09T13:12:27.017Z,95.63
2024-05-09T13:13:26.635Z,90
2024-05-09T13:14:26.419Z,90
2024-05-09T13:15:27.033Z,90
2024-05-09T13:16:28.778Z,95.63
2024-05-09T13:17:29.259Z,95.63
2024-05-09T13:18:29.980Z,101.25
2024-05-09T13:19:30.443Z,106.88
2024-05-09T13:20:47.127Z,112.5
2024-05-09T13:22:31.976Z,118.13
2024-05-09T13:23:32.724Z,118.13
2024-05-09T13:24:33.784Z,129.38
2024-05-09T13:25:34.788Z,140.63
2024-05-09T13:26:35.046Z,135
2024-05-09T13:27:35.877Z,140.63
2024-05-09T13:28:36.872Z,146.25
2024-05-09T13:29:36.601Z,140.63
2024-05-09T13:30:53.536Z,185.63
2024-05-09T13:31:38.516Z,151.88
2024-05-09T13:32:40.253Z,140.63
2024-05-09T13:33:41.366Z,123.75
2024-05-09T13:34:41.070Z,123.75
2024-05-09T13:36:41.957Z,106.88
2024-05-09T13:37:42.688Z,95.63
2024-05-09T13:38:42.946Z,90
2024-05-09T13:39:43.932Z,78.75
2024-05-09T13:40:51.648Z,67.5
2024-05-09T13:41:44.374Z,61.88
2024-05-09T13:42:47.624Z,56.25
2024-05-09T13:43:46.103Z,56.25
2024-05-09T13:44:46.051Z,56.25
2024-05-09T13:45:47.581Z,61.88
2024-05-09T13:46:47.686Z,61.88
2024-05-09T13:47:49.346Z,61.88
2024-05-09T13:48:50.496Z,61.88
2024-05-09T13:49:50.685Z,61.88
2024-05-09T13:50:53.300Z,61.88
2024-05-09T13:51:51.580Z,61.88
2024-05-09T13:52:51.345Z,56.25
2024-05-09T13:53:52.518Z,61.88
2024-05-09T13:54:53.493Z,61.88
2024-05-09T13:55:54.480Z,61.88
2024-05-09T13:56:54.607Z,61.88
2024-05-09T13:57:55.613Z,61.88
2024-05-09T13:58:55.549Z,61.88
2024-05-09T13:59:56.722Z,61.88
2024-05-09T14:01:05.469Z,61.88
2024-05-09T14:01:58.979Z,61.88
2024-05-09T14:02:59.472Z,67.5
2024-05-09T14:04:00.747Z,61.88